Terminal Aerodrome Forecast
Issued by NWS

Home | Current Version | Previous Version | Text Only | Print | Product List | Glossary Off
Versions: 1 2 3 4 5 6 7 8 9 10 11 12 13 14 15 16 17 18 19 20 21 22

000
FTUS43 KICT 231228 AAA
TAFHUT
TAF AMD
KHUT 231228Z 2312/2412 17013KT P6SM VCTS SCT020CB OVC100CB
      TEMPO 2313/2315 5SM -TSRA BR BKN020CB
     FM231700 17016G23KT P6SM BKN035
     FM232300 17016G25KT P6SM VCTS SCT025 BKN060CB
     FM240500 17012G24KT P6SM VCSH BKN025=

USA.gov is the U.S. government's official web portal to all federal, state and local government web resources and services.